sensor_id;sensor_type;location;lat;lon;timestamp;temperature;humidity
6174;DHT22;3120;48.796;9.796;2022-12-07T00:01:34;3.90;99.90
6174;DHT22;3120;48.796;9.796;2022-12-07T00:04:02;3.90;99.90
6174;DHT22;3120;48.796;9.796;2022-12-07T00:06:37;3.90;99.90
6174;DHT22;3120;48.796;9.796;2022-12-07T00:09:04;3.90;99.90
6174;DHT22;3120;48.796;9.796;2022-12-07T00:11:30;3.90;99.90
6174;DHT22;3120;48.796;9.796;2022-12-07T00:13:58;3.90;99.90
6174;DHT22;3120;48.796;9.796;2022-12-07T00:16:26;3.90;99.90
6174;DHT22;3120;48.796;9.796;2022-12-07T00:18:52;3.90;99.90
6174;DHT22;3120;48.796;9.796;2022-12-07T00:21:29;3.90;99.90
6174;DHT22;3120;48.796;9.796;2022-12-07T00:23:56;3.90;99.90
6174;DHT22;3120;48.796;9.796;2022-12-07T00:26:23;3.90;99.90
6174;DHT22;3120;48.796;9.796;2022-12-07T00:29:00;3.90;99.90
6174;DHT22;3120;48.796;9.796;2022-12-07T00:31:29;3.90;99.90
6174;DHT22;3120;48.796;9.796;2022-12-07T00:33:56;3.90;99.90
6174;DHT22;3120;48.796;9.796;2022-12-07T00:36:23;3.90;99.90
6174;DHT22;3120;48.796;9.796;2022-12-07T00:38:49;3.90;99.90
6174;DHT22;3120;48.796;9.796;2022-12-07T00:41:17;3.90;99.90
6174;DHT22;3120;48.796;9.796;2022-12-07T00:43:44;3.90;99.90
6174;DHT22;3120;48.796;9.796;2022-12-07T00:46:11;3.90;99.90
6174;DHT22;3120;48.796;9.796;2022-12-07T00:48:37;3.90;99.90
6174;DHT22;3120;48.796;9.796;2022-12-07T00:51:03;3.90;99.90
6174;DHT22;3120;48.796;9.796;2022-12-07T00:53:29;3.90;99.90
6174;DHT22;3120;48.796;9.796;2022-12-07T00:55:55;3.90;99.90
6174;DHT22;3120;48.796;9.796;2022-12-07T00:58:22;3.90;99.90
6174;DHT22;3120;48.796;9.796;2022-12-07T01:00:48;4.00;99.90
6174;DHT22;3120;48.796;9.796;2022-12-07T01:03:14;3.90;99.90
6174;DHT22;3120;48.796;9.796;2022-12-07T01:05:40;4.00;99.90
6174;DHT22;3120;48.796;9.796;2022-12-07T01:08:13;3.90;99.90
6174;DHT22;3120;48.796;9.796;2022-12-07T01:10:39;3.90;99.90
6174;DHT22;3120;48.796;9.796;2022-12-07T01:13:04;3.90;99.90
6174;DHT22;3120;48.796;9.796;2022-12-07T01:15:30;3.90;99.90
6174;DHT22;3120;48.796;9.796;2022-12-07T01:17:56;3.90;99.90
6174;DHT22;3120;48.796;9.796;2022-12-07T01:20:21;4.00;99.90
6174;DHT22;3120;48.796;9.796;2022-12-07T01:22:47;4.00;99.90
6174;DHT22;3120;48.796;9.796;2022-12-07T01:25:13;4.40;99.90
6174;DHT22;3120;48.796;9.796;2022-12-07T01:27:38;4.00;99.90
6174;DHT22;3120;48.796;9.796;2022-12-07T01:30:06;5.80;99.90
6174;DHT22;3120;48.796;9.796;2022-12-07T01:32:33;4.00;99.90
6174;DHT22;3120;48.796;9.796;2022-12-07T01:34:59;4.00;99.90
6174;DHT22;3120;48.796;9.796;2022-12-07T01:37:24;4.00;99.90
6174;DHT22;3120;48.796;9.796;2022-12-07T01:39:51;4.00;99.90
6174;DHT22;3120;48.796;9.796;2022-12-07T01:42:17;4.00;99.90
6174;DHT22;3120;48.796;9.796;2022-12-07T01:47:57;4.00;99.90
6174;DHT22;3120;48.796;9.796;2022-12-07T01:50:25;3.90;99.90
6174;DHT22;3120;48.796;9.796;2022-12-07T01:52:54;3.90;99.90
6174;DHT22;3120;48.796;9.796;2022-12-07T01:55:22;3.90;99.90
6174;DHT22;3120;48.796;9.796;2022-12-07T01:57:51;3.80;99.90
6174;DHT22;3120;48.796;9.796;2022-12-07T02:00:19;3.90;99.90
6174;DHT22;3120;48.796;9.796;2022-12-07T02:03:00;3.90;99.90
6174;DHT22;3120;48.796;9.796;2022-12-07T02:05:27;3.90;99.90
6174;DHT22;3120;48.796;9.796;2022-12-07T02:07:55;3.90;99.90
6174;DHT22;3120;48.796;9.796;2022-12-07T02:10:43;3.90;99.90
6174;DHT22;3120;48.796;9.796;2022-12-07T02:13:21;3.90;99.90
6174;DHT22;3120;48.796;9.796;2022-12-07T02:30:11;3.70;99.90
6174;DHT22;3120;48.796;9.796;2022-12-07T02:35:22;3.70;99.90
6174;DHT22;3120;48.796;9.796;2022-12-07T02:38:02;3.70;99.90
6174;DHT22;3120;48.796;9.796;2022-12-07T02:40:35;3.80;99.90
6174;DHT22;3120;48.796;9.796;2022-12-07T02:43:16;3.70;99.90
6174;DHT22;3120;48.796;9.796;2022-12-07T02:45:44;3.70;99.90
6174;DHT22;3120;48.796;9.796;2022-12-07T02:48:12;3.70;99.90
6174;DHT22;3120;48.796;9.796;2022-12-07T02:50:38;3.70;99.90
6174;DHT22;3120;48.796;9.796;2022-12-07T02:53:04;3.70;99.90
6174;DHT22;3120;48.796;9.796;2022-12-07T02:55:38;3.70;99.90
6174;DHT22;3120;48.796;9.796;2022-12-07T02:58:11;3.70;99.90
6174;DHT22;3120;48.796;9.796;2022-12-07T03:00:58;3.70;99.90
6174;DHT22;3120;48.796;9.796;2022-12-07T03:03:29;3.70;99.90
6174;DHT22;3120;48.796;9.796;2022-12-07T03:09:04;3.70;99.90
6174;DHT22;3120;48.796;9.796;2022-12-07T03:11:51;3.60;99.90
6174;DHT22;3120;48.796;9.796;2022-12-07T03:14:24;3.60;99.90
6174;DHT22;3120;48.796;9.796;2022-12-07T03:19:20;3.50;99.90
6174;DHT22;3120;48.796;9.796;2022-12-07T03:21:51;3.50;99.90
6174;DHT22;3120;48.796;9.796;2022-12-07T03:24:21;4.90;99.90
6174;DHT22;3120;48.796;9.796;2022-12-07T03:26:57;3.50;99.90
6174;DHT22;3120;48.796;9.796;2022-12-07T03:29:35;3.60;99.90
6174;DHT22;3120;48.796;9.796;2022-12-07T03:32:20;3.50;99.90
6174;DHT22;3120;48.796;9.796;2022-12-07T03:34:50;3.50;99.90
6174;DHT22;3120;48.796;9.796;2022-12-07T03:40:07;3.50;99.90
6174;DHT22;3120;48.796;9.796;2022-12-07T03:42:35;3.50;99.90
6174;DHT22;3120;48.796;9.796;2022-12-07T03:45:02;3.50;99.90
6174;DHT22;3120;48.796;9.796;2022-12-07T03:47:39;3.40;99.90
6174;DHT22;3120;48.796;9.796;2022-12-07T03:50:25;3.40;99.90
6174;DHT22;3120;48.796;9.796;2022-12-07T03:52:56;3.50;99.90
6174;DHT22;3120;48.796;9.796;2022-12-07T03:55:31;3.40;99.90
6174;DHT22;3120;48.796;9.796;2022-12-07T03:58:09;3.40;99.90
6174;DHT22;3120;48.796;9.796;2022-12-07T04:00:36;3.40;99.90
6174;DHT22;3120;48.796;9.796;2022-12-07T04:03:01;3.40;99.90
6174;DHT22;3120;48.796;9.796;2022-12-07T04:05:27;3.30;99.90
6174;DHT22;3120;48.796;9.796;2022-12-07T04:07:53;3.30;99.90
6174;DHT22;3120;48.796;9.796;2022-12-07T04:10:33;3.30;99.90
6174;DHT22;3120;48.796;9.796;2022-12-07T04:12:58;3.30;99.90
6174;DHT22;3120;48.796;9.796;2022-12-07T04:15:24;3.20;99.90
6174;DHT22;3120;48.796;9.796;2022-12-07T04:17:50;3.20;99.90
6174;DHT22;3120;48.796;9.796;2022-12-07T04:20:16;3.20;99.90
6174;DHT22;3120;48.796;9.796;2022-12-07T04:22:41;3.20;99.90
6174;DHT22;3120;48.796;9.796;2022-12-07T04:25:07;3.30;99.90
6174;DHT22;3120;48.796;9.796;2022-12-07T04:27:33;3.30;99.90
6174;DHT22;3120;48.796;9.796;2022-12-07T04:29:58;3.30;99.90
6174;DHT22;3120;48.796;9.796;2022-12-07T04:32:24;3.30;99.90
6174;DHT22;3120;48.796;9.796;2022-12-07T04:34:50;3.40;99.90
6174;DHT22;3120;48.796;9.796;2022-12-07T04:37:16;3.40;99.90
6174;DHT22;3120;48.796;9.796;2022-12-07T04:39:42;3.40;99.90
6174;DHT22;3120;48.796;9.796;2022-12-07T04:42:10;3.40;99.90
6174;DHT22;3120;48.796;9.796;2022-12-07T04:44:36;3.90;99.90
6174;DHT22;3120;48.796;9.796;2022-12-07T04:47:01;3.40;99.90
6174;DHT22;3120;48.796;9.796;2022-12-07T04:49:27;3.40;99.90
6174;DHT22;3120;48.796;9.796;2022-12-07T04:51:53;3.30;99.90
6174;DHT22;3120;48.796;9.796;2022-12-07T04:54:19;3.30;99.90
6174;DHT22;3120;48.796;9.796;2022-12-07T04:56:45;3.20;99.90
6174;DHT22;3120;48.796;9.796;2022-12-07T04:59:11;3.20;99.90
6174;DHT22;3120;48.796;9.796;2022-12-07T05:01:37;3.20;99.90
6174;DHT22;3120;48.796;9.796;2022-12-07T05:04:03;3.20;99.90
6174;DHT22;3120;48.796;9.796;2022-12-07T05:06:29;3.20;99.90
6174;DHT22;3120;48.796;9.796;2022-12-07T05:08:54;3.30;99.90
6174;DHT22;3120;48.796;9.796;2022-12-07T05:11:20;3.30;99.90
6174;DHT22;3120;48.796;9.796;2022-12-07T05:14:12;3.30;99.90
6174;DHT22;3120;48.796;9.796;2022-12-07T05:16:39;3.30;99.90
6174;DHT22;3120;48.796;9.796;2022-12-07T05:19:05;3.30;99.90
6174;DHT22;3120;48.796;9.796;2022-12-07T05:21:30;3.30;99.90
6174;DHT22;3120;48.796;9.796;2022-12-07T05:23:56;3.30;99.90
6174;DHT22;3120;48.796;9.796;2022-12-07T05:26:22;3.30;99.90
6174;DHT22;3120;48.796;9.796;2022-12-07T05:28:55;3.30;99.90
6174;DHT22;3120;48.796;9.796;2022-12-07T05:31:21;3.30;99.90
6174;DHT22;3120;48.796;9.796;2022-12-07T05:33:47;3.30;99.90
6174;DHT22;3120;48.796;9.796;2022-12-07T05:36:13;3.20;99.90
6174;DHT22;3120;48.796;9.796;2022-12-07T05:38:39;3.30;99.90
6174;DHT22;3120;48.796;9.796;2022-12-07T05:41:06;3.20;99.90
6174;DHT22;3120;48.796;9.796;2022-12-07T05:43:32;3.20;99.90
6174;DHT22;3120;48.796;9.796;2022-12-07T05:45:58;3.20;99.90
6174;DHT22;3120;48.796;9.796;2022-12-07T05:48:25;3.20;99.90
6174;DHT22;3120;48.796;9.796;2022-12-07T05:50:51;3.30;99.90
6174;DHT22;3120;48.796;9.796;2022-12-07T05:53:17;3.30;99.90
6174;DHT22;3120;48.796;9.796;2022-12-07T05:55:43;3.20;99.90
6174;DHT22;3120;48.796;9.796;2022-12-07T05:58:09;5.40;99.90
6174;DHT22;3120;48.796;9.796;2022-12-07T06:00:55;3.30;99.90
6174;DHT22;3120;48.796;9.796;2022-12-07T06:03:20;3.30;99.90
6174;DHT22;3120;48.796;9.796;2022-12-07T06:05:46;3.30;99.90
6174;DHT22;3120;48.796;9.796;2022-12-07T06:08:12;3.30;99.90
6174;DHT22;3120;48.796;9.796;2022-12-07T06:10:40;3.30;99.90
6174;DHT22;3120;48.796;9.796;2022-12-07T06:13:05;3.30;99.90
6174;DHT22;3120;48.796;9.796;2022-12-07T06:15:31;3.30;99.90
6174;DHT22;3120;48.796;9.796;2022-12-07T06:17:56;3.30;99.90
6174;DHT22;3120;48.796;9.796;2022-12-07T06:20:22;3.30;99.90
6174;DHT22;3120;48.796;9.796;2022-12-07T06:22:47;3.40;99.90
6174;DHT22;3120;48.796;9.796;2022-12-07T06:25:13;3.40;99.90
6174;DHT22;3120;48.796;9.796;2022-12-07T06:27:38;3.40;99.90
6174;DHT22;3120;48.796;9.796;2022-12-07T06:30:04;3.40;99.90
6174;DHT22;3120;48.796;9.796;2022-12-07T06:32:33;3.40;99.90
6174;DHT22;3120;48.796;9.796;2022-12-07T06:34:59;3.40;99.90
6174;DHT22;3120;48.796;9.796;2022-12-07T06:37:24;3.40;99.90
6174;DHT22;3120;48.796;9.796;2022-12-07T06:39:50;3.40;99.90
6174;DHT22;3120;48.796;9.796;2022-12-07T06:42:16;3.30;99.90
6174;DHT22;3120;48.796;9.796;2022-12-07T06:44:41;3.30;99.90
6174;DHT22;3120;48.796;9.796;2022-12-07T06:47:07;3.30;99.90
6174;DHT22;3120;48.796;9.796;2022-12-07T06:49:33;3.30;99.90
6174;DHT22;3120;48.796;9.796;2022-12-07T06:51:59;3.40;99.90
6174;DHT22;3120;48.796;9.796;2022-12-07T06:54:24;3.30;99.90
6174;DHT22;3120;48.796;9.796;2022-12-07T06:56:50;3.30;99.90
6174;DHT22;3120;48.796;9.796;2022-12-07T06:59:16;3.30;99.90
6174;DHT22;3120;48.796;9.796;2022-12-07T07:01:41;4.50;99.90
6174;DHT22;3120;48.796;9.796;2022-12-07T07:04:07;3.30;99.90
6174;DHT22;3120;48.796;9.796;2022-12-07T07:06:33;3.30;99.90
6174;DHT22;3120;48.796;9.796;2022-12-07T07:08:58;5.30;99.90
6174;DHT22;3120;48.796;9.796;2022-12-07T07:11:24;3.30;99.90
6174;DHT22;3120;48.796;9.796;2022-12-07T07:13:49;3.30;99.90
6174;DHT22;3120;48.796;9.796;2022-12-07T07:16:16;3.30;99.90
6174;DHT22;3120;48.796;9.796;2022-12-07T07:18:42;3.30;99.90
6174;DHT22;3120;48.796;9.796;2022-12-07T07:21:07;3.30;99.90
6174;DHT22;3120;48.796;9.796;2022-12-07T07:23:33;3.30;99.90
6174;DHT22;3120;48.796;9.796;2022-12-07T07:25:59;3.30;99.90
6174;DHT22;3120;48.796;9.796;2022-12-07T07:28:24;3.30;99.90
6174;DHT22;3120;48.796;9.796;2022-12-07T07:30:50;3.30;99.90
6174;DHT22;3120;48.796;9.796;2022-12-07T07:33:15;3.30;99.90
6174;DHT22;3120;48.796;9.796;2022-12-07T07:35:41;3.30;99.90
6174;DHT22;3120;48.796;9.796;2022-12-07T07:38:07;3.40;99.90
6174;DHT22;3120;48.796;9.796;2022-12-07T07:40:33;3.40;99.90
6174;DHT22;3120;48.796;9.796;2022-12-07T07:42:59;3.40;99.90
6174;DHT22;3120;48.796;9.796;2022-12-07T07:45:26;3.40;99.90
6174;DHT22;3120;48.796;9.796;2022-12-07T07:47:52;3.40;99.90
6174;DHT22;3120;48.796;9.796;2022-12-07T07:50:18;3.40;99.90
6174;DHT22;3120;48.796;9.796;2022-12-07T07:52:44;3.40;99.90
6174;DHT22;3120;48.796;9.796;2022-12-07T07:55:10;3.50;99.90
6174;DHT22;3120;48.796;9.796;2022-12-07T07:57:36;3.50;99.90
6174;DHT22;3120;48.796;9.796;2022-12-07T08:00:10;3.50;99.90
6174;DHT22;3120;48.796;9.796;2022-12-07T08:02:41;3.60;99.90
6174;DHT22;3120;48.796;9.796;2022-12-07T08:05:08;3.60;99.90
6174;DHT22;3120;48.796;9.796;2022-12-07T08:07:33;3.50;99.90
6174;DHT22;3120;48.796;9.796;2022-12-07T08:09:59;3.50;99.90
6174;DHT22;3120;48.796;9.796;2022-12-07T08:12:25;3.60;99.90
6174;DHT22;3120;48.796;9.796;2022-12-07T08:14:51;3.60;99.90
6174;DHT22;3120;48.796;9.796;2022-12-07T08:17:16;3.70;99.90
6174;DHT22;3120;48.796;9.796;2022-12-07T08:19:42;3.70;99.90
6174;DHT22;3120;48.796;9.796;2022-12-07T08:22:08;3.70;99.90
6174;DHT22;3120;48.796;9.796;2022-12-07T08:24:34;3.80;99.90
6174;DHT22;3120;48.796;9.796;2022-12-07T08:27:00;3.80;99.90
6174;DHT22;3120;48.796;9.796;2022-12-07T08:29:26;3.80;99.90
6174;DHT22;3120;48.796;9.796;2022-12-07T08:35:04;3.90;99.90
6174;DHT22;3120;48.796;9.796;2022-12-07T08:37:30;3.90;99.90
6174;DHT22;3120;48.796;9.796;2022-12-07T08:39:56;3.90;99.90
6174;DHT22;3120;48.796;9.796;2022-12-07T08:42:22;4.00;99.90
6174;DHT22;3120;48.796;9.796;2022-12-07T08:44:57;4.10;99.90
6174;DHT22;3120;48.796;9.796;2022-12-07T08:47:24;4.10;99.90
6174;DHT22;3120;48.796;9.796;2022-12-07T08:49:51;4.00;99.90
6174;DHT22;3120;48.796;9.796;2022-12-07T08:52:17;4.10;99.90
6174;DHT22;3120;48.796;9.796;2022-12-07T08:54:43;4.20;99.90
6174;DHT22;3120;48.796;9.796;2022-12-07T08:57:10;4.20;99.90
6174;DHT22;3120;48.796;9.796;2022-12-07T08:59:37;4.20;99.90
6174;DHT22;3120;48.796;9.796;2022-12-07T09:02:04;4.30;99.90
6174;DHT22;3120;48.796;9.796;2022-12-07T09:04:30;4.30;99.90
6174;DHT22;3120;48.796;9.796;2022-12-07T09:06:56;4.30;99.90
6174;DHT22;3120;48.796;9.796;2022-12-07T09:09:22;4.40;99.90
6174;DHT22;3120;48.796;9.796;2022-12-07T09:11:48;4.30;99.90
6174;DHT22;3120;48.796;9.796;2022-12-07T09:14:13;4.40;99.90
6174;DHT22;3120;48.796;9.796;2022-12-07T09:16:39;4.40;99.90
6174;DHT22;3120;48.796;9.796;2022-12-07T09:19:05;4.40;99.90
6174;DHT22;3120;48.796;9.796;2022-12-07T09:21:30;4.40;99.90
6174;DHT22;3120;48.796;9.796;2022-12-07T09:23:56;4.40;99.90
6174;DHT22;3120;48.796;9.796;2022-12-07T09:26:22;4.50;99.90
6174;DHT22;3120;48.796;9.796;2022-12-07T09:28:47;4.50;99.90
6174;DHT22;3120;48.796;9.796;2022-12-07T09:31:13;4.50;99.90
6174;DHT22;3120;48.796;9.796;2022-12-07T09:33:38;4.60;99.90
6174;DHT22;3120;48.796;9.796;2022-12-07T09:36:04;4.60;99.90
6174;DHT22;3120;48.796;9.796;2022-12-07T09:38:30;4.60;99.90
6174;DHT22;3120;48.796;9.796;2022-12-07T09:40:57;4.70;99.90
6174;DHT22;3120;48.796;9.796;2022-12-07T09:43:24;4.70;98.80
6174;DHT22;3120;48.796;9.796;2022-12-07T09:45:54;4.70;90.10
6174;DHT22;3120;48.796;9.796;2022-12-07T09:51:43;4.90;45.60
6174;DHT22;3120;48.796;9.796;2022-12-07T09:54:12;6.20;53.00
6174;DHT22;3120;48.796;9.796;2022-12-07T09:56:38;4.80;25.40
6174;DHT22;3120;48.796;9.796;2022-12-07T09:59:04;4.80;38.20
6174;DHT22;3120;48.796;9.796;2022-12-07T10:01:33;4.80;31.40
6174;DHT22;3120;48.796;9.796;2022-12-07T10:04:14;4.90;54.80
6174;DHT22;3120;48.796;9.796;2022-12-07T10:06:41;4.90;14.50
6174;DHT22;3120;48.796;9.796;2022-12-07T10:09:15;4.80;10.80
6174;DHT22;3120;48.796;9.796;2022-12-07T10:12:03;4.80;34.20
6174;DHT22;3120;48.796;9.796;2022-12-07T10:14:31;4.80;37.90
6174;DHT22;3120;48.796;9.796;2022-12-07T10:16:57;4.90;30.00
6174;DHT22;3120;48.796;9.796;2022-12-07T10:19:24;5.60;30.00
6174;DHT22;3120;48.796;9.796;2022-12-07T10:22:15;4.90;5.90
6174;DHT22;3120;48.796;9.796;2022-12-07T10:24:43;4.80;31.30
6174;DHT22;3120;48.796;9.796;2022-12-07T10:27:37;4.90;21.30
6174;DHT22;3120;48.796;9.796;2022-12-07T10:30:07;5.00;1.00
6174;DHT22;3120;48.796;9.796;2022-12-07T10:32:35;5.00;1.60
6174;DHT22;3120;48.796;9.796;2022-12-07T10:35:26;5.00;1.00
6174;DHT22;3120;48.796;9.796;2022-12-07T10:37:53;5.00;1.00
6174;DHT22;3120;48.796;9.796;2022-12-07T10:40:33;4.90;1.00
6174;DHT22;3120;48.796;9.796;2022-12-07T10:43:12;5.00;3.60
6174;DHT22;3120;48.796;9.796;2022-12-07T10:47:00;6.60;1.00
6174;DHT22;3120;48.796;9.796;2022-12-07T10:52:02;5.10;1.00
6174;DHT22;3120;48.796;9.796;2022-12-07T10:57:22;5.10;1.00
6174;DHT22;3120;48.796;9.796;2022-12-07T11:03:08;5.20;1.00
6174;DHT22;3120;48.796;9.796;2022-12-07T11:05:47;5.30;1.00
6174;DHT22;3120;48.796;9.796;2022-12-07T11:21:48;5.50;1.00
6174;DHT22;3120;48.796;9.796;2022-12-07T11:24:32;5.50;1.00
6174;DHT22;3120;48.796;9.796;2022-12-07T11:29:58;5.50;1.00
6174;DHT22;3120;48.796;9.796;2022-12-07T11:32:51;5.40;1.00
6174;DHT22;3120;48.796;9.796;2022-12-07T11:41:02;5.50;1.00
6174;DHT22;3120;48.796;9.796;2022-12-07T11:46:36;5.60;1.00
6174;DHT22;3120;48.796;9.796;2022-12-07T11:52:27;5.40;99.90
6174;DHT22;3120;48.796;9.796;2022-12-07T11:54:57;5.60;1.00
6174;DHT22;3120;48.796;9.796;2022-12-07T11:57:38;5.40;1.00
6174;DHT22;3120;48.796;9.796;2022-12-07T12:00:13;5.40;1.00
6174;DHT22;3120;48.796;9.796;2022-12-07T12:03:03;5.40;1.00
6174;DHT22;3120;48.796;9.796;2022-12-07T12:05:31;5.30;1.00
6174;DHT22;3120;48.796;9.796;2022-12-07T12:08:12;5.30;1.00
6174;DHT22;3120;48.796;9.796;2022-12-07T12:21:42;5.40;1.00
6174;DHT22;3120;48.796;9.796;2022-12-07T12:24:27;5.40;1.00
6174;DHT22;3120;48.796;9.796;2022-12-07T12:27:03;5.40;1.00
6174;DHT22;3120;48.796;9.796;2022-12-07T12:29:34;6.40;1.00
6174;DHT22;3120;48.796;9.796;2022-12-07T12:32:17;5.50;1.00
6174;DHT22;3120;48.796;9.796;2022-12-07T12:42:51;5.70;1.00
6174;DHT22;3120;48.796;9.796;2022-12-07T12:45:24;5.70;1.00
6174;DHT22;3120;48.796;9.796;2022-12-07T12:50:24;5.80;1.00
6174;DHT22;3120;48.796;9.796;2022-12-07T12:55:48;5.70;99.90
6174;DHT22;3120;48.796;9.796;2022-12-07T13:04:21;5.40;99.90
6174;DHT22;3120;48.796;9.796;2022-12-07T13:06:48;5.60;1.00
6174;DHT22;3120;48.796;9.796;2022-12-07T13:09:24;5.60;1.00
6174;DHT22;3120;48.796;9.796;2022-12-07T13:12:01;6.60;1.00
6174;DHT22;3120;48.796;9.796;2022-12-07T13:14:56;5.50;1.00
6174;DHT22;3120;48.796;9.796;2022-12-07T13:20:05;5.60;1.00
6174;DHT22;3120;48.796;9.796;2022-12-07T13:28:19;5.50;1.00
6174;DHT22;3120;48.796;9.796;2022-12-07T13:33:47;4.80;1.00
6174;DHT22;3120;48.796;9.796;2022-12-07T13:36:34;5.50;1.00
6174;DHT22;3120;48.796;9.796;2022-12-07T13:42:27;5.40;99.90
6174;DHT22;3120;48.796;9.796;2022-12-07T13:44:55;5.30;99.90
6174;DHT22;3120;48.796;9.796;2022-12-07T13:47:39;5.80;1.00
6174;DHT22;3120;48.796;9.796;2022-12-07T13:50:27;5.30;99.90
6174;DHT22;3120;48.796;9.796;2022-12-07T13:53:01;5.40;1.00
6174;DHT22;3120;48.796;9.796;2022-12-07T13:55:28;5.30;1.00
6174;DHT22;3120;48.796;9.796;2022-12-07T13:57:55;6.10;99.90
6174;DHT22;3120;48.796;9.796;2022-12-07T14:00:31;5.30;1.00
6174;DHT22;3120;48.796;9.796;2022-12-07T14:03:00;5.20;1.00
6174;DHT22;3120;48.796;9.796;2022-12-07T14:05:31;5.80;1.00
6174;DHT22;3120;48.796;9.796;2022-12-07T14:07:59;5.20;1.00
6174;DHT22;3120;48.796;9.796;2022-12-07T14:12:56;5.10;1.00
6174;DHT22;3120;48.796;9.796;2022-12-07T14:15:33;5.80;1.00
6174;DHT22;3120;48.796;9.796;2022-12-07T14:18:00;5.10;1.00
6174;DHT22;3120;48.796;9.796;2022-12-07T14:22:56;4.60;1.00
6174;DHT22;3120;48.796;9.796;2022-12-07T14:25:23;5.00;1.00
6174;DHT22;3120;48.796;9.796;2022-12-07T14:27:58;5.80;1.00
6174;DHT22;3120;48.796;9.796;2022-12-07T14:30:29;4.40;1.00
6174;DHT22;3120;48.796;9.796;2022-12-07T14:33:03;6.10;1.00
6174;DHT22;3120;48.796;9.796;2022-12-07T14:35:32;6.00;6.50
6174;DHT22;3120;48.796;9.796;2022-12-07T14:37:58;5.90;24.60
6174;DHT22;3120;48.796;9.796;2022-12-07T14:40:28;4.30;16.30
6174;DHT22;3120;48.796;9.796;2022-12-07T14:43:04;5.70;25.60
6174;DHT22;3120;48.796;9.796;2022-12-07T14:45:32;4.00;24.80
6174;DHT22;3120;48.796;9.796;2022-12-07T14:48:04;5.80;70.60
6174;DHT22;3120;48.796;9.796;2022-12-07T14:50:30;5.60;63.40
6174;DHT22;3120;48.796;9.796;2022-12-07T14:53:03;3.20;96.10
6174;DHT22;3120;48.796;9.796;2022-12-07T14:55:31;5.40;91.50
6174;DHT22;3120;48.796;9.796;2022-12-07T14:57:58;3.70;99.90
6174;DHT22;3120;48.796;9.796;2022-12-07T15:00:26;4.60;99.90
6174;DHT22;3120;48.796;9.796;2022-12-07T15:02:52;5.40;99.90
6174;DHT22;3120;48.796;9.796;2022-12-07T15:05:22;3.80;99.90
6174;DHT22;3120;48.796;9.796;2022-12-07T15:07:49;5.00;99.90
6174;DHT22;3120;48.796;9.796;2022-12-07T15:10:24;3.70;99.90
6174;DHT22;3120;48.796;9.796;2022-12-07T15:12:58;4.70;99.90
6174;DHT22;3120;48.796;9.796;2022-12-07T15:15:43;4.60;99.90
6174;DHT22;3120;48.796;9.796;2022-12-07T15:18:09;4.60;99.90
6174;DHT22;3120;48.796;9.796;2022-12-07T15:20:36;5.00;99.90
6174;DHT22;3120;48.796;9.796;2022-12-07T15:23:02;5.20;99.90
6174;DHT22;3120;48.796;9.796;2022-12-07T15:25:27;4.60;99.90
6174;DHT22;3120;48.796;9.796;2022-12-07T15:27:53;5.00;99.90
6174;DHT22;3120;48.796;9.796;2022-12-07T15:30:54;5.80;99.90
6174;DHT22;3120;48.796;9.796;2022-12-07T15:33:20;5.40;99.90
6174;DHT22;3120;48.796;9.796;2022-12-07T15:36:04;4.90;99.90
6174;DHT22;3120;48.796;9.796;2022-12-07T15:42:00;4.30;99.90
6174;DHT22;3120;48.796;9.796;2022-12-07T15:44:26;4.30;99.90
6174;DHT22;3120;48.796;9.796;2022-12-07T15:47:16;4.30;99.90
6174;DHT22;3120;48.796;9.796;2022-12-07T15:49:48;3.70;99.90
6174;DHT22;3120;48.796;9.796;2022-12-07T15:52:16;4.30;99.90
6174;DHT22;3120;48.796;9.796;2022-12-07T15:54:42;4.30;99.90
6174;DHT22;3120;48.796;9.796;2022-12-07T15:57:08;4.40;99.90
6174;DHT22;3120;48.796;9.796;2022-12-07T15:59:33;5.00;99.90
6174;DHT22;3120;48.796;9.796;2022-12-07T16:01:59;5.10;99.90
6174;DHT22;3120;48.796;9.796;2022-12-07T16:04:27;4.30;99.90
6174;DHT22;3120;48.796;9.796;2022-12-07T16:06:53;5.00;99.90
6174;DHT22;3120;48.796;9.796;2022-12-07T16:09:22;5.30;99.90
6174;DHT22;3120;48.796;9.796;2022-12-07T16:11:48;4.60;99.90
6174;DHT22;3120;48.796;9.796;2022-12-07T16:14:15;4.30;99.90
6174;DHT22;3120;48.796;9.796;2022-12-07T16:16:41;4.80;99.90
6174;DHT22;3120;48.796;9.796;2022-12-07T16:19:07;4.70;99.90
6174;DHT22;3120;48.796;9.796;2022-12-07T16:21:36;4.90;99.90
6174;DHT22;3120;48.796;9.796;2022-12-07T16:24:02;4.30;99.90
6174;DHT22;3120;48.796;9.796;2022-12-07T16:26:27;4.20;99.90
6174;DHT22;3120;48.796;9.796;2022-12-07T16:28:53;4.30;99.90
6174;DHT22;3120;48.796;9.796;2022-12-07T16:31:22;4.20;99.90
6174;DHT22;3120;48.796;9.796;2022-12-07T16:33:48;4.20;99.90
6174;DHT22;3120;48.796;9.796;2022-12-07T16:36:15;5.00;99.90
6174;DHT22;3120;48.796;9.796;2022-12-07T16:38:42;4.90;99.90
6174;DHT22;3120;48.796;9.796;2022-12-07T16:41:09;4.20;99.90
6174;DHT22;3120;48.796;9.796;2022-12-07T16:43:36;5.30;99.90
6174;DHT22;3120;48.796;9.796;2022-12-07T16:46:02;5.10;99.90
6174;DHT22;3120;48.796;9.796;2022-12-07T16:48:27;4.10;99.90
6174;DHT22;3120;48.796;9.796;2022-12-07T16:50:53;4.10;99.90
6174;DHT22;3120;48.796;9.796;2022-12-07T16:53:21;4.10;99.90
6174;DHT22;3120;48.796;9.796;2022-12-07T16:55:47;4.10;99.90
6174;DHT22;3120;48.796;9.796;2022-12-07T16:58:14;5.60;99.90
6174;DHT22;3120;48.796;9.796;2022-12-07T17:00:44;4.80;99.90
6174;DHT22;3120;48.796;9.796;2022-12-07T17:03:10;4.10;99.90
6174;DHT22;3120;48.796;9.796;2022-12-07T17:05:41;4.10;99.90
6174;DHT22;3120;48.796;9.796;2022-12-07T17:08:09;3.60;99.90
6174;DHT22;3120;48.796;9.796;2022-12-07T17:10:38;3.60;99.90
6174;DHT22;3120;48.796;9.796;2022-12-07T17:13:05;4.10;99.90
6174;DHT22;3120;48.796;9.796;2022-12-07T17:16:02;4.10;99.90
6174;DHT22;3120;48.796;9.796;2022-12-07T17:18:31;4.10;99.90
6174;DHT22;3120;48.796;9.796;2022-12-07T17:21:05;4.10;99.90
6174;DHT22;3120;48.796;9.796;2022-12-07T17:23:32;4.10;99.90
6174;DHT22;3120;48.796;9.796;2022-12-07T17:26:10;4.00;99.90
6174;DHT22;3120;48.796;9.796;2022-12-07T17:28:36;4.00;99.90
6174;DHT22;3120;48.796;9.796;2022-12-07T17:31:05;4.50;99.90
6174;DHT22;3120;48.796;9.796;2022-12-07T17:33:31;4.40;99.90
6174;DHT22;3120;48.796;9.796;2022-12-07T17:35:57;4.00;99.90
6174;DHT22;3120;48.796;9.796;2022-12-07T17:38:22;4.00;99.90
6174;DHT22;3120;48.796;9.796;2022-12-07T17:40:48;4.00;99.90
6174;DHT22;3120;48.796;9.796;2022-12-07T17:43:14;4.00;99.90
6174;DHT22;3120;48.796;9.796;2022-12-07T17:45:39;5.10;99.90
6174;DHT22;3120;48.796;9.796;2022-12-07T17:48:05;5.30;99.90
6174;DHT22;3120;48.796;9.796;2022-12-07T17:50:31;5.40;99.90
6174;DHT22;3120;48.796;9.796;2022-12-07T17:53:15;4.60;99.90
6174;DHT22;3120;48.796;9.796;2022-12-07T17:55:40;4.00;99.90
6174;DHT22;3120;48.796;9.796;2022-12-07T17:58:06;4.00;99.90
6174;DHT22;3120;48.796;9.796;2022-12-07T18:00:32;3.90;99.90
6174;DHT22;3120;48.796;9.796;2022-12-07T18:03:04;3.90;99.90
6174;DHT22;3120;48.796;9.796;2022-12-07T18:05:30;3.90;99.90
6174;DHT22;3120;48.796;9.796;2022-12-07T18:07:56;3.90;99.90
6174;DHT22;3120;48.796;9.796;2022-12-07T18:10:22;3.90;99.90
6174;DHT22;3120;48.796;9.796;2022-12-07T18:12:47;4.60;99.90
6174;DHT22;3120;48.796;9.796;2022-12-07T18:15:13;3.90;99.90
6174;DHT22;3120;48.796;9.796;2022-12-07T18:17:38;3.90;99.90
6174;DHT22;3120;48.796;9.796;2022-12-07T18:20:05;3.90;99.90
6174;DHT22;3120;48.796;9.796;2022-12-07T18:22:31;3.90;99.90
6174;DHT22;3120;48.796;9.796;2022-12-07T18:24:56;3.90;99.90
6174;DHT22;3120;48.796;9.796;2022-12-07T18:27:22;4.50;99.90
6174;DHT22;3120;48.796;9.796;2022-12-07T18:29:47;4.40;99.90
6174;DHT22;3120;48.796;9.796;2022-12-07T18:32:13;3.90;99.90
6174;DHT22;3120;48.796;9.796;2022-12-07T18:34:39;3.90;99.90
6174;DHT22;3120;48.796;9.796;2022-12-07T18:37:05;3.80;99.90
6174;DHT22;3120;48.796;9.796;2022-12-07T18:39:31;3.80;99.90